Time;durP1;ratioP1;P1;durP2;ratioP2;P2;SDS_P1;SDS_P2;PMS_P1;PMS_P2;Temp;Humidity;BMP_temperature;BMP_pressure;BME280_temperature;BME280_humidity;BME280_pressure;Samples;Min_cycle;Max_cycle;Signal;HPM_P1;HPM_P2
2021/03/07 00:01:15;;;;;;;16.35;2.92;;;4.10;99.90;;;;;;5000011;28;20053;-62
2021/03/07 00:03:41;;;;;;;13.73;3.38;;;4.10;99.90;;;;;;4998742;28;20034;-61
2021/03/07 00:06:07;;;;;;;19.42;3.67;;;4.10;99.90;;;;;;4996849;28;20120;-61
2021/03/07 00:08:39;;;;;;;22.02;3.47;;;4.10;99.90;;;;;;4997563;28;20068;-61
2021/03/07 00:11:05;;;;;;;13.90;3.63;;;4.10;99.90;;;;;;4998432;28;20029;-61
2021/03/07 00:13:31;;;;;;;14.52;4.47;;;4.10;99.90;;;;;;4997541;28;20030;-61
2021/03/07 00:15:57;;;;;;;17.00;4.00;;;4.10;99.90;;;;;;4996964;28;20594;-62
2021/03/07 00:18:23;;;;;;;13.02;2.80;;;4.10;99.90;;;;;;4997451;28;20064;-61
2021/03/07 00:20:49;;;;;;;15.40;3.10;;;4.10;99.90;;;;;;4997072;28;20056;-61
2021/03/07 00:23:15;;;;;;;10.45;3.95;;;4.10;99.90;;;;;;4997768;28;20041;-62
2021/03/07 00:25:41;;;;;;;14.20;3.22;;;4.10;99.90;;;;;;4997587;28;20401;-61
2021/03/07 00:28:07;;;;;;;17.73;3.13;;;4.10;99.90;;;;;;4997842;28;20029;-61
2021/03/07 00:30:32;;;;;;;9.45;3.05;;;4.10;99.90;;;;;;4995932;28;20100;-61
2021/03/07 00:32:58;;;;;;;14.68;2.92;;;4.10;99.90;;;;;;4996871;28;20025;-61
2021/03/07 00:35:24;;;;;;;11.95;2.45;;;4.10;99.90;;;;;;4999155;28;20041;-62
2021/03/07 00:37:50;;;;;;;8.73;2.83;;;4.10;99.90;;;;;;4999744;28;20117;-61
2021/03/07 00:40:16;;;;;;;12.65;2.40;;;4.10;99.90;;;;;;4999644;28;20045;-62
2021/03/07 00:42:47;;;;;;;18.95;4.22;;;4.10;99.90;;;;;;5000568;28;20038;-61
2021/03/07 00:45:15;;;;;;;14.15;4.03;;;4.20;99.90;;;;;;4997340;28;20038;-61
2021/03/07 00:47:41;;;;;;;22.70;3.72;;;4.10;99.90;;;;;;4999386;28;20026;-62
2021/03/07 00:50:21;;;;;;;16.65;4.13;;;4.20;99.90;;;;;;4997568;28;20029;-62
2021/03/07 00:52:48;;;;;;;13.93;3.63;;;4.20;99.90;;;;;;5000230;28;20057;-61
2021/03/07 00:55:14;;;;;;;11.32;2.47;;;4.20;99.90;;;;;;4998602;28;20512;-61
2021/03/07 00:57:39;;;;;;;13.65;3.13;;;4.10;99.90;;;;;;4999743;28;20042;-61
2021/03/07 01:00:09;;;;;;;10.63;2.97;;;4.10;99.90;;;;;;4999595;28;20034;-61
2021/03/07 01:02:35;;;;;;;11.82;3.15;;;4.10;99.90;;;;;;4999498;28;20201;-61
2021/03/07 01:05:01;;;;;;;18.73;3.65;;;4.10;99.90;;;;;;4999183;28;20571;-62
2021/03/07 01:07:27;;;;;;;9.68;2.70;;;4.10;99.90;;;;;;4999498;28;20363;-61
2021/03/07 01:09:52;;;;;;;11.40;2.83;;;4.10;99.90;;;;;;4997785;28;20031;-61
2021/03/07 01:12:18;;;;;;;11.23;2.47;;;4.10;99.90;;;;;;4999418;28;20041;-61
2021/03/07 01:14:44;;;;;;;15.95;3.72;;;4.10;99.90;;;;;;4999575;28;20034;-62
2021/03/07 01:17:10;;;;;;;12.52;3.15;;;4.10;99.90;;;;;;4999237;28;20026;-62
2021/03/07 01:19:36;;;;;;;14.15;2.88;;;4.10;99.90;;;;;;4998347;28;20048;-61
2021/03/07 01:22:03;;;;;;;15.90;3.28;;;4.10;99.90;;;;;;4990506;28;20033;-61
2021/03/07 01:24:29;;;;;;;21.25;3.78;;;4.10;99.90;;;;;;4999159;28;20056;-61
2021/03/07 01:26:55;;;;;;;16.70;3.90;;;4.10;99.90;;;;;;5003123;28;20030;-61
2021/03/07 01:29:21;;;;;;;21.73;3.22;;;4.10;99.90;;;;;;5002994;28;20607;-62
2021/03/07 01:31:46;;;;;;;21.27;3.13;;;4.00;99.90;;;;;;5002383;28;20034;-61
2021/03/07 01:34:12;;;;;;;12.50;3.05;;;3.90;99.90;;;;;;5000686;28;20034;-61
2021/03/07 01:36:38;;;;;;;14.43;3.60;;;3.90;99.90;;;;;;4999109;28;20022;-61
2021/03/07 01:39:04;;;;;;;15.82;3.17;;;3.90;99.90;;;;;;5000954;28;20481;-61
2021/03/07 01:41:30;;;;;;;10.15;2.90;;;3.90;99.90;;;;;;4994525;28;20575;-62
2021/03/07 01:43:56;;;;;;;17.98;3.00;;;3.80;99.90;;;;;;5000564;28;20064;-61
2021/03/07 01:46:22;;;;;;;12.20;2.65;;;3.80;99.90;;;;;;5000946;28;20029;-62
2021/03/07 01:48:49;;;;;;;10.05;2.85;;;3.90;99.90;;;;;;5000283;28;20061;-62
2021/03/07 01:51:15;;;;;;;16.67;3.00;;;3.90;99.90;;;;;;5000670;28;20066;-61
2021/03/07 01:53:41;;;;;;;16.77;3.60;;;3.90;99.90;;;;;;5000489;28;20096;-61
2021/03/07 01:56:10;;;;;;;20.75;3.83;;;3.90;99.90;;;;;;4999233;28;20032;-61
2021/03/07 01:58:37;;;;;;;16.67;3.73;;;3.90;99.90;;;;;;5001142;28;20077;-61
2021/03/07 02:01:05;;;;;;;15.30;3.60;;;3.90;99.90;;;;;;5001045;28;20447;-61
2021/03/07 02:03:31;;;;;;;12.63;3.47;;;3.90;99.90;;;;;;4999740;28;20539;-61
2021/03/07 02:05:57;;;;;;;18.38;3.42;;;3.80;99.90;;;;;;4981417;28;20056;-61
2021/03/07 02:08:24;;;;;;;18.40;4.60;;;3.80;99.90;;;;;;4999946;28;20529;-61
2021/03/07 02:10:49;;;;;;;17.55;3.55;;;3.80;99.90;;;;;;4999120;28;20536;-61
2021/03/07 02:13:23;;;;;;;14.98;4.50;;;3.80;99.90;;;;;;5000923;28;20065;-61
2021/03/07 02:15:53;;;;;;;18.52;3.75;;;3.70;99.90;;;;;;4999977;28;20018;-61
2021/03/07 02:18:19;;;;;;;26.88;3.80;;;3.70;99.90;;;;;;5001845;28;20046;-61
2021/03/07 02:20:56;;;;;;;28.25;5.18;;;3.70;99.90;;;;;;5001526;28;20709;-61
2021/03/07 02:23:23;;;;;;;25.42;4.25;;;3.70;99.90;;;;;;5001808;28;20057;-62
2021/03/07 02:25:51;;;;;;;18.75;3.25;;;3.70;99.90;;;;;;5001847;28;20578;-61
2021/03/07 02:28:17;;;;;;;16.55;3.50;;;3.70;99.90;;;;;;5001604;28;20034;-62
2021/03/07 02:30:44;;;;;;;25.45;4.45;;;3.60;99.90;;;;;;5002734;28;20977;-61
2021/03/07 02:33:19;;;;;;;10.32;3.60;;;3.60;99.90;;;;;;5001127;28;20903;-61
2021/03/07 02:35:51;;;;;;;24.05;3.92;;;3.50;99.90;;;;;;5001157;28;20029;-61
2021/03/07 02:38:19;;;;;;;16.27;3.40;;;3.50;99.90;;;;;;5001393;28;20511;-61
2021/03/07 02:40:48;;;;;;;13.13;3.17;;;3.50;99.90;;;;;;5001112;28;20273;-62
2021/03/07 02:43:16;;;;;;;15.70;3.42;;;3.50;99.90;;;;;;5001949;28;20058;-61
2021/03/07 02:45:44;;;;;;;12.38;2.50;;;3.40;99.90;;;;;;5001051;28;20099;-62
2021/03/07 02:48:14;;;;;;;17.75;3.35;;;3.40;99.90;;;;;;4999996;28;20041;-62
2021/03/07 02:50:44;;;;;;;17.52;3.13;;;3.40;99.90;;;;;;5001512;28;20032;-61
2021/03/07 02:53:15;;;;;;;16.00;3.42;;;3.40;99.90;;;;;;5000892;28;20037;-62
2021/03/07 02:55:42;;;;;;;14.00;3.13;;;3.30;99.90;;;;;;5001258;28;20034;-61
2021/03/07 02:58:11;;;;;;;14.20;3.17;;;3.30;99.90;;;;;;5001925;28;20127;-61
2021/03/07 03:00:48;;;;;;;19.90;3.60;;;3.30;99.90;;;;;;5001438;28;20034;-61
2021/03/07 03:03:15;;;;;;;13.05;2.75;;;3.30;99.90;;;;;;5001106;28;20463;-61
2021/03/07 03:05:42;;;;;;;22.90;3.22;;;3.30;99.90;;;;;;4999808;28;20032;-61
2021/03/07 03:08:08;;;;;;;12.13;3.17;;;3.30;99.90;;;;;;4998191;28;20023;-62
2021/03/07 03:10:35;;;;;;;17.63;3.35;;;3.30;99.90;;;;;;4996478;28;20033;-61
2021/03/07 03:13:03;;;;;;;20.73;2.25;;;3.30;99.90;;;;;;4997901;28;20545;-61
2021/03/07 03:15:29;;;;;;;18.58;2.63;;;3.30;99.90;;;;;;4998643;28;20560;-61
2021/03/07 03:17:57;;;;;;;23.38;3.58;;;3.30;99.90;;;;;;4999534;28;20052;-61
2021/03/07 03:20:25;;;;;;;16.92;3.22;;;3.30;99.90;;;;;;4997960;28;20034;-61
2021/03/07 03:22:52;;;;;;;13.80;2.58;;;3.30;99.90;;;;;;4997949;28;20125;-61
2021/03/07 03:25:18;;;;;;;19.98;2.90;;;3.20;99.90;;;;;;4998412;28;20052;-61
2021/03/07 03:27:43;;;;;;;18.50;2.63;;;3.30;99.90;;;;;;4997602;28;20026;-62
2021/03/07 03:30:12;;;;;;;15.73;2.88;;;3.30;99.90;;;;;;4998357;28;20069;-61
2021/03/07 03:32:39;;;;;;;18.50;3.33;;;3.20;99.90;;;;;;4999444;28;20026;-61
2021/03/07 03:35:10;;;;;;;16.80;2.35;;;3.30;99.90;;;;;;4999599;28;20095;-62
2021/03/07 03:37:37;;;;;;;17.33;2.55;;;3.30;99.90;;;;;;4997845;28;20033;-61
2021/03/07 03:40:08;;;;;;;15.38;3.20;;;3.30;99.90;;;;;;4998446;28;20120;-61
2021/03/07 03:42:37;;;;;;;21.30;2.97;;;3.40;99.90;;;;;;4999301;28;20149;-61
2021/03/07 03:45:06;;;;;;;14.75;3.53;;;3.40;99.90;;;;;;4996707;28;20129;-61
2021/03/07 03:47:33;;;;;;;15.63;2.17;;;3.40;99.90;;;;;;4997453;28;20038;-62
2021/03/07 03:49:59;;;;;;;15.02;3.08;;;3.40;99.90;;;;;;4997529;28;20080;-61
2021/03/07 03:52:29;;;;;;;12.07;3.45;;;3.40;99.90;;;;;;4998038;28;20034;-61
2021/03/07 03:55:03;;;;;;;23.23;3.33;;;3.40;99.90;;;;;;4997661;28;20351;-61
2021/03/07 03:57:31;;;;;;;22.15;3.75;;;3.40;99.90;;;;;;4998012;28;20061;-61
2021/03/07 04:00:00;;;;;;;18.73;3.65;;;3.40;99.90;;;;;;4998594;28;20048;-62
2021/03/07 04:02:28;;;;;;;24.02;3.78;;;3.50;99.90;;;;;;4998361;28;20077;-62
2021/03/07 04:04:59;;;;;;;20.70;4.97;;;3.50;99.90;;;;;;4997979;28;20033;-61
2021/03/07 04:07:27;;;;;;;20.60;3.83;;;3.60;99.90;;;;;;4997732;28;20030;-61
2021/03/07 04:09:54;;;;;;;22.50;3.97;;;3.60;99.90;;;;;;4997777;28;20030;-62
2021/03/07 04:12:21;;;;;;;17.10;4.50;;;3.70;99.90;;;;;;4999379;28;20128;-62
2021/03/07 04:14:48;;;;;;;14.10;3.45;;;3.70;99.90;;;;;;5000243;28;20040;-62
2021/03/07 04:17:18;;;;;;;20.17;4.20;;;3.70;99.90;;;;;;4998952;28;20873;-62
2021/03/07 04:19:46;;;;;;;23.60;3.92;;;3.70;99.90;;;;;;4999701;28;20449;-61
2021/03/07 04:22:13;;;;;;;17.08;3.67;;;3.80;99.90;;;;;;4999995;28;20033;-62
2021/03/07 04:24:40;;;;;;;19.20;3.78;;;3.80;99.90;;;;;;4997492;28;20046;-61
2021/03/07 04:27:06;;;;;;;22.80;4.13;;;3.80;99.90;;;;;;5000322;28;20026;-62
2021/03/07 04:29:33;;;;;;;20.75;3.65;;;3.80;99.90;;;;;;4999220;28;20889;-61
2021/03/07 04:32:00;;;;;;;16.73;3.42;;;3.90;99.90;;;;;;4998786;28;20091;-61
2021/03/07 04:34:26;;;;;;;23.83;3.97;;;3.90;99.90;;;;;;4999601;28;20033;-61
2021/03/07 04:36:52;;;;;;;14.20;3.72;;;4.00;99.90;;;;;;4999467;28;20057;-61
2021/03/07 04:39:18;;;;;;;26.23;4.47;;;4.10;99.90;;;;;;4999394;28;20133;-61
2021/03/07 04:41:44;;;;;;;22.60;3.58;;;4.10;99.90;;;;;;4999565;28;20025;-62
2021/03/07 04:44:10;;;;;;;17.17;3.60;;;4.10;99.90;;;;;;5000369;28;20431;-61
2021/03/07 04:46:36;;;;;;;22.00;3.60;;;4.10;99.90;;;;;;4998282;28;20634;-61
2021/03/07 04:49:02;;;;;;;23.02;6.15;;;4.10;99.90;;;;;;4999068;28;20121;-61
2021/03/07 04:51:28;;;;;;;24.58;4.53;;;4.10;99.90;;;;;;4998886;28;20559;-61
2021/03/07 04:53:54;;;;;;;22.05;3.80;;;4.20;99.90;;;;;;4999943;28;20038;-61
2021/03/07 04:56:20;;;;;;;21.92;3.08;;;4.20;99.90;;;;;;5000383;28;20720;-62
2021/03/07 04:58:45;;;;;;;25.17;3.85;;;4.20;99.90;;;;;;4999365;28;20038;-62
2021/03/07 05:01:11;;;;;;;20.73;4.22;;;4.20;99.90;;;;;;5002505;28;20030;-61
2021/03/07 05:03:37;;;;;;;21.58;4.35;;;4.20;99.90;;;;;;5001899;28;20121;-61
2021/03/07 05:06:03;;;;;;;24.75;5.20;;;4.20;99.90;;;;;;5003056;28;20026;-61
2021/03/07 05:08:30;;;;;;;29.05;4.78;;;4.20;99.90;;;;;;5003674;28;20519;-61
2021/03/07 05:10:56;;;;;;;31.38;5.13;;;4.10;99.90;;;;;;5003820;28;20033;-62
2021/03/07 05:13:22;;;;;;;27.70;4.95;;;4.10;99.90;;;;;;5001499;28;20070;-62
2021/03/07 05:15:49;;;;;;;25.17;4.93;;;4.10;99.90;;;;;;5003637;28;20045;-62
2021/03/07 05:18:15;;;;;;;21.15;4.47;;;4.10;99.90;;;;;;5002116;28;20045;-62
2021/03/07 05:20:41;;;;;;;24.55;4.32;;;4.10;99.90;;;;;;5002351;28;20655;-62
2021/03/07 05:23:07;;;;;;;22.20;4.47;;;4.10;99.90;;;;;;5001217;28;20026;-62
2021/03/07 05:25:33;;;;;;;22.88;4.40;;;4.10;99.90;;;;;;5002268;28;20117;-62
2021/03/07 05:27:59;;;;;;;19.08;4.65;;;4.10;99.90;;;;;;5001466;28;20048;-62
2021/03/07 05:30:25;;;;;;;23.98;4.55;;;4.10;99.90;;;;;;5003613;28;20030;-62
2021/03/07 05:32:52;;;;;;;26.40;4.75;;;4.10;99.90;;;;;;5002501;28;20029;-62
2021/03/07 05:35:18;;;;;;;17.85;4.88;;;4.10;99.90;;;;;;4985163;28;20044;-61
2021/03/07 05:37:44;;;;;;;21.10;4.28;;;4.10;99.90;;;;;;5002428;28;20049;-61
2021/03/07 05:40:10;;;;;;;25.40;4.57;;;4.00;99.90;;;;;;5002708;28;20493;-61
2021/03/07 05:42:36;;;;;;;23.33;4.35;;;4.00;99.90;;;;;;5002222;28;20465;-61
2021/03/07 05:45:03;;;;;;;32.75;4.93;;;4.00;99.90;;;;;;5002019;28;20117;-61
2021/03/07 05:47:28;;;;;;;25.38;4.38;;;4.00;99.90;;;;;;5001570;28;20059;-62
2021/03/07 05:49:55;;;;;;;26.00;5.00;;;4.00;99.90;;;;;;5002219;28;20786;-62
2021/03/07 05:52:24;;;;;;;33.30;5.00;;;4.10;99.90;;;;;;5002235;28;20658;-61
2021/03/07 05:54:54;;;;;;;27.33;5.75;;;4.10;99.90;;;;;;5000200;28;20026;-61
2021/03/07 05:57:22;;;;;;;23.67;5.82;;;4.10;99.90;;;;;;5003034;28;20029;-62
2021/03/07 05:59:49;;;;;;;27.90;4.72;;;4.20;99.90;;;;;;5001620;28;20037;-62
2021/03/07 06:02:16;;;;;;;23.60;4.82;;;4.20;99.90;;;;;;5000389;28;20104;-62
2021/03/07 06:04:42;;;;;;;23.88;5.20;;;4.20;99.90;;;;;;5001399;28;20087;-62
2021/03/07 06:07:08;;;;;;;23.55;4.65;;;4.10;99.90;;;;;;5002294;28;20025;-62
2021/03/07 06:09:34;;;;;;;22.20;4.32;;;4.10;99.90;;;;;;5002009;28;20032;-62
2021/03/07 06:12:02;;;;;;;26.70;4.88;;;4.10;99.90;;;;;;5001063;28;20037;-62
2021/03/07 06:14:29;;;;;;;27.75;4.38;;;4.00;99.90;;;;;;4999674;28;20037;-62
2021/03/07 06:17:09;;;;;;;15.73;4.00;;;4.00;99.90;;;;;;5001430;28;20037;-62
2021/03/07 06:19:59;;;;;;;21.52;4.35;;;4.00;99.90;;;;;;5000335;28;20060;-61
2021/03/07 06:22:30;;;;;;;16.85;3.72;;;4.00;99.90;;;;;;5000560;28;20049;-62
2021/03/07 06:24:57;;;;;;;18.63;3.53;;;4.00;99.90;;;;;;4999865;28;20038;-62
2021/03/07 06:27:24;;;;;;;21.25;4.28;;;4.00;99.90;;;;;;5001316;28;20084;-61
2021/03/07 06:30:09;;;;;;;21.95;5.15;;;4.00;99.90;;;;;;4999703;28;20853;-62
2021/03/07 06:32:40;;;;;;;15.95;3.58;;;4.00;99.90;;;;;;5000417;28;20040;-62
2021/03/07 06:35:09;;;;;;;19.15;3.80;;;4.10;99.90;;;;;;4999596;28;20038;-61
2021/03/07 06:37:57;;;;;;;19.42;3.95;;;4.20;99.90;;;;;;4998425;28;20045;-62
2021/03/07 06:40:32;;;;;;;18.30;3.90;;;4.40;99.90;;;;;;5000538;28;20042;-61
2021/03/07 06:42:59;;;;;;;21.10;3.53;;;4.50;99.90;;;;;;4998944;28;20053;-61
2021/03/07 06:45:39;;;;;;;16.80;4.03;;;4.50;99.90;;;;;;4999278;28;20038;-61
2021/03/07 06:48:06;;;;;;;19.60;3.55;;;4.50;99.90;;;;;;5000867;28;20508;-62
2021/03/07 06:50:31;;;;;;;24.98;5.28;;;4.60;99.90;;;;;;5000501;28;20052;-62
2021/03/07 06:52:59;;;;;;;19.23;4.22;;;4.60;99.90;;;;;;4999675;28;20026;-61
2021/03/07 06:55:41;;;;;;;21.73;3.38;;;4.60;99.90;;;;;;5000814;28;20101;-61
2021/03/07 06:58:17;;;;;;;26.48;4.28;;;4.60;99.90;;;;;;5001040;28;20037;-61
2021/03/07 07:00:44;;;;;;;19.17;3.80;;;4.70;99.90;;;;;;5001114;28;20029;-62
2021/03/07 07:03:12;;;;;;;18.70;4.10;;;4.70;99.90;;;;;;5000650;28;20163;-61
2021/03/07 07:05:54;;;;;;;29.27;3.50;;;4.70;99.90;;;;;;4997417;28;20030;-61
2021/03/07 07:08:44;;;;;;;18.90;4.05;;;4.70;99.90;;;;;;4999048;28;20490;-62
2021/03/07 07:11:10;;;;;;;16.00;3.72;;;4.70;99.90;;;;;;4998334;28;20029;-62
2021/03/07 07:13:51;;;;;;;17.90;4.20;;;4.80;99.90;;;;;;5000875;28;20028;-62
2021/03/07 07:16:17;;;;;;;22.75;4.15;;;4.80;99.90;;;;;;5000348;28;20778;-61
2021/03/07 07:18:44;;;;;;;24.80;4.50;;;4.80;99.90;;;;;;5000346;28;20138;-62
2021/03/07 07:21:12;;;;;;;18.40;3.75;;;4.80;99.90;;;;;;4999674;28;20045;-61
2021/03/07 07:23:38;;;;;;;22.58;4.28;;;4.80;99.90;;;;;;4998114;28;20044;-62
2021/03/07 07:26:05;;;;;;;16.08;4.35;;;4.80;99.90;;;;;;4999355;28;20034;-62
2021/03/07 07:28:33;;;;;;;24.85;4.03;;;4.90;99.90;;;;;;5000065;28;20037;-61
2021/03/07 07:30:59;;;;;;;19.48;3.72;;;4.90;99.90;;;;;;4999200;28;20034;-62
2021/03/07 07:33:55;;;;;;;17.38;4.57;;;4.90;99.90;;;;;;5000079;28;20030;-61
2021/03/07 07:36:42;;;;;;;25.70;4.90;;;4.90;99.90;;;;;;5003111;28;20038;-61
2021/03/07 07:39:11;;;;;;;31.23;4.55;;;4.90;99.90;;;;;;5000248;28;20048;-62
2021/03/07 07:41:39;;;;;;;29.13;4.85;;;5.00;99.90;;;;;;4999822;28;20034;-62
2021/03/07 07:44:11;;;;;;;24.27;4.15;;;5.00;99.90;;;;;;4999334;28;20029;-62
2021/03/07 07:46:58;;;;;;;24.23;4.75;;;5.00;99.90;;;;;;4998843;28;20026;-62
2021/03/07 07:49:50;;;;;;;18.23;3.55;;;5.00;99.90;;;;;;4996652;28;20088;-61
2021/03/07 07:52:25;;;;;;;28.25;4.35;;;5.00;99.90;;;;;;4997624;28;20115;-62
2021/03/07 07:55:00;;;;;;;19.60;4.30;;;5.00;99.90;;;;;;4998777;28;20917;-63
2021/03/07 07:57:35;;;;;;;21.17;4.82;;;5.00;99.90;;;;;;4997446;28;20540;-61
2021/03/07 08:00:04;;;;;;;20.70;4.35;;;5.00;99.90;;;;;;4992433;28;20662;-62
2021/03/07 08:02:42;;;;;;;25.52;5.28;;;5.00;99.90;;;;;;4995747;28;20038;-62
2021/03/07 08:05:20;;;;;;;21.92;4.80;;;5.00;99.90;;;;;;4994207;28;20030;-62
2021/03/07 08:07:59;;;;;;;28.40;5.97;;;5.00;99.90;;;;;;4993489;28;20036;-62
2021/03/07 08:10:40;;;;;;;19.88;4.40;;;5.00;99.90;;;;;;4996328;28;20044;-62
2021/03/07 08:13:07;;;;;;;22.02;3.88;;;5.20;99.90;;;;;;4996314;28;20037;-62
2021/03/07 08:15:37;;;;;;;31.50;5.15;;;5.40;99.90;;;;;;4996696;28;20787;-62
2021/03/07 08:18:04;;;;;;;26.35;4.28;;;5.40;99.90;;;;;;4997744;28;20037;-62
2021/03/07 08:20:40;;;;;;;32.47;5.25;;;5.50;99.90;;;;;;4994620;28;20490;-62
2021/03/07 08:23:10;;;;;;;23.73;4.75;;;5.50;99.90;;;;;;4998154;28;20038;-62
2021/03/07 08:25:50;;;;;;;23.15;5.97;;;5.50;99.90;;;;;;4999058;28;20022;-62
2021/03/07 08:28:29;;;;;;;26.80;5.65;;;5.60;99.90;;;;;;4996008;28;20348;-62
2021/03/07 08:31:20;;;;;;;25.77;5.28;;;5.60;99.90;;;;;;4998267;28;20674;-62
2021/03/07 08:33:46;;;;;;;29.40;5.55;;;5.70;99.90;;;;;;4998986;28;20737;-62
2021/03/07 08:36:18;;;;;;;22.30;3.95;;;5.60;99.90;;;;;;4998640;28;20445;-62
2021/03/07 08:38:53;;;;;;;31.58;5.88;;;5.60;99.90;;;;;;4999568;28;20514;-61
2021/03/07 08:41:46;;;;;;;31.35;5.90;;;5.60;99.90;;;;;;5000559;28;20030;-62
2021/03/07 08:44:14;;;;;;;29.67;5.55;;;5.60;99.90;;;;;;5002344;28;20136;-62
2021/03/07 08:46:39;;;;;;;22.40;5.28;;;5.60;99.90;;;;;;5001022;28;20033;-61
2021/03/07 08:49:24;;;;;;;23.48;5.22;;;5.60;99.90;;;;;;5002702;28;20445;-63
2021/03/07 08:51:56;;;;;;;27.15;5.95;;;5.50;99.90;;;;;;5002562;28;20508;-62
2021/03/07 08:54:22;;;;;;;22.52;5.60;;;5.60;99.90;;;;;;4999875;28;20470;-62
2021/03/07 08:56:52;;;;;;;38.55;6.75;;;5.60;99.90;;;;;;5002646;28;20030;-62
2021/03/07 08:59:28;;;;;;;24.05;6.32;;;5.60;99.90;;;;;;4999532;28;20774;-61
2021/03/07 09:01:55;;;;;;;37.15;9.85;;;5.60;99.90;;;;;;4998234;28;20124;-62
2021/03/07 09:04:22;;;;;;;32.20;8.95;;;5.60;99.90;;;;;;5001102;28;20033;-61
2021/03/07 09:06:48;;;;;;;54.50;15.35;;;5.60;99.90;;;;;;4999115;28;20473;-62
2021/03/07 09:09:21;;;;;;;37.70;15.45;;;5.60;99.90;;;;;;5001495;28;20052;-62
2021/03/07 09:11:58;;;;;;;41.47;13.00;;;5.70;99.90;;;;;;5001514;28;20053;-62
2021/03/07 09:14:38;;;;;;;35.30;11.23;;;5.70;99.90;;;;;;5001359;28;20726;-64
2021/03/07 09:17:07;;;;;;;44.22;22.27;;;5.70;99.90;;;;;;5003140;28;20119;-62
2021/03/07 09:19:40;;;;;;;48.20;11.77;;;5.80;99.90;;;;;;5000307;28;20076;-61
2021/03/07 09:22:17;;;;;;;37.05;12.60;;;6.00;99.90;;;;;;5003837;28;20026;-61
2021/03/07 09:25:06;;;;;;;42.83;18.67;;;6.00;99.90;;;;;;4999872;28;20056;-62
2021/03/07 09:27:35;;;;;;;47.67;21.45;;;6.20;99.90;;;;;;5000308;28;20030;-61
2021/03/07 09:30:04;;;;;;;29.02;9.65;;;6.30;99.90;;;;;;5002321;28;20195;-62
2021/03/07 09:32:39;;;;;;;30.13;13.13;;;6.30;99.90;;;;;;5001975;28;20038;-62
2021/03/07 09:35:28;;;;;;;17.52;4.93;;;6.40;99.90;;;;;;5000292;28;20096;-61
2021/03/07 09:38:05;;;;;;;21.50;8.23;;;6.60;99.90;;;;;;5000602;28;20030;-61
2021/03/07 09:40:37;;;;;;;24.33;6.68;;;6.80;99.90;;;;;;5002145;28;20041;-61
2021/03/07 09:43:06;;;;;;;14.10;3.63;;;6.90;99.90;;;;;;5002106;28;20022;-62
2021/03/07 09:45:33;;;;;;;15.07;3.70;;;6.70;99.90;;;;;;5001828;28;20532;-62
2021/03/07 09:47:59;;;;;;;23.02;3.75;;;6.50;99.90;;;;;;5001325;28;20034;-62
2021/03/07 09:50:26;;;;;;;20.27;3.78;;;6.40;99.90;;;;;;5002256;28;20797;-62
2021/03/07 09:52:54;;;;;;;20.38;3.60;;;6.40;99.90;;;;;;5000492;28;20041;-62
2021/03/07 09:55:28;;;;;;;21.88;4.00;;;6.40;99.90;;;;;;5002332;28;20735;-62
2021/03/07 09:58:02;;;;;;;18.50;3.03;;;6.40;99.90;;;;;;5001687;28;20029;-61
2021/03/07 10:00:29;;;;;;;12.02;2.88;;;6.50;99.90;;;;;;5001538;28;20034;-62
2021/03/07 10:02:55;;;;;;;15.18;3.42;;;6.40;99.90;;;;;;5000046;28;20036;-62
2021/03/07 10:05:21;;;;;;;18.25;3.08;;;6.30;99.90;;;;;;4998035;28;20045;-62
2021/03/07 10:07:47;;;;;;;16.52;3.90;;;6.30;99.90;;;;;;4996735;28;20053;-63
2021/03/07 10:10:19;;;;;;;21.15;4.13;;;6.40;99.90;;;;;;4993695;28;20152;-62
2021/03/07 10:12:52;;;;;;;18.20;3.20;;;6.30;99.90;;;;;;5001083;28;20037;-62
2021/03/07 10:15:27;;;;;;;12.63;3.33;;;6.20;99.90;;;;;;4996235;28;20073;-62
2021/03/07 10:17:54;;;;;;;16.15;3.10;;;6.30;99.90;;;;;;5001895;28;20072;-63
2021/03/07 10:20:20;;;;;;;19.55;3.00;;;6.20;99.90;;;;;;4996781;28;20061;-63
2021/03/07 10:22:47;;;;;;;18.67;3.17;;;6.20;99.90;;;;;;4996855;28;20070;-62
2021/03/07 10:25:33;;;;;;;18.63;3.03;;;6.30;99.90;;;;;;4997579;28;20649;-62
2021/03/07 10:28:25;;;;;;;16.90;3.67;;;6.40;99.90;;;;;;5000444;28;20758;-62
2021/03/07 10:30:53;;;;;;;15.95;2.72;;;6.30;99.90;;;;;;5001211;28;20030;-62
2021/03/07 10:33:22;;;;;;;17.33;2.67;;;6.30;99.90;;;;;;4998002;28;20481;-62
2021/03/07 10:35:57;;;;;;;16.23;3.65;;;6.30;99.90;;;;;;4996663;28;20034;-63
2021/03/07 10:38:23;;;;;;;12.63;2.22;;;6.50;99.90;;;;;;4993992;28;20693;-62
2021/03/07 10:40:49;;;;;;;11.70;3.05;;;6.90;99.90;;;;;;4996977;28;20049;-62
2021/03/07 10:43:15;;;;;;;16.30;2.78;;;7.30;99.90;;;;;;4997681;28;20033;-62
2021/03/07 10:45:41;;;;;;;12.00;2.17;;;7.20;99.90;;;;;;4995917;28;20116;-62
2021/03/07 10:48:12;;;;;;;12.52;2.75;;;7.10;99.90;;;;;;4997140;28;20030;-62
2021/03/07 10:50:46;;;;;;;14.35;2.80;;;6.90;99.90;;;;;;5000296;28;20108;-61
2021/03/07 10:53:13;;;;;;;14.68;2.42;;;6.90;99.90;;;;;;5002006;28;20058;-61
2021/03/07 10:55:39;;;;;;;14.55;2.45;;;7.00;99.90;;;;;;4996965;28;20033;-62
2021/03/07 10:58:05;;;;;;;15.32;2.50;;;7.30;99.90;;;;;;4996097;28;20045;-62
2021/03/07 11:00:32;;;;;;;15.95;3.45;;;8.00;99.90;;;;;;4998426;28;20037;-62
2021/03/07 11:02:58;;;;;;;14.00;2.97;;;8.50;99.90;;;;;;5000206;28;20030;-61
2021/03/07 11:05:24;;;;;;;21.88;3.17;;;8.60;99.90;;;;;;4999305;28;20044;-62
2021/03/07 11:07:50;;;;;;;15.88;3.35;;;8.60;99.90;;;;;;4999866;28;20115;-62
2021/03/07 11:10:19;;;;;;;19.77;3.25;;;8.30;99.90;;;;;;4997047;28;20038;-62
2021/03/07 11:12:46;;;;;;;12.50;2.90;;;8.50;99.90;;;;;;5000464;28;20551;-62
2021/03/07 11:15:13;;;;;;;14.57;3.33;;;9.10;99.90;;;;;;4998089;28;20042;-61
2021/03/07 11:17:39;;;;;;;9.68;2.85;;;9.60;99.90;;;;;;4996974;28;20507;-61
2021/03/07 11:20:08;;;;;;;17.17;3.15;;;9.90;99.90;;;;;;4995830;28;20299;-62
2021/03/07 11:22:33;;;;;;;12.80;3.25;;;10.50;99.90;;;;;;4997236;28;20705;-62
2021/03/07 11:24:59;;;;;;;17.10;3.55;;;10.60;99.90;;;;;;4996067;28;20065;-62
2021/03/07 11:27:25;;;;;;;16.20;2.85;;;10.80;99.90;;;;;;5000126;28;20034;-62
2021/03/07 11:29:51;;;;;;;15.40;3.33;;;10.90;99.90;;;;;;4995750;28;20030;-62
2021/03/07 11:32:17;;;;;;;14.30;3.97;;;11.10;99.90;;;;;;4996613;28;20033;-62
2021/03/07 11:34:43;;;;;;;13.85;3.13;;;11.00;99.90;;;;;;4998457;28;20030;-62
2021/03/07 11:37:08;;;;;;;13.55;3.03;;;10.80;99.90;;;;;;5000510;28;20038;-62
2021/03/07 11:39:34;;;;;;;9.40;2.65;;;10.80;99.90;;;;;;4997561;28;20053;-62
2021/03/07 11:42:00;;;;;;;12.02;3.05;;;10.90;99.90;;;;;;4999668;28;20025;-62
2021/03/07 11:44:26;;;;;;;17.63;3.30;;;11.20;99.90;;;;;;4996363;28;20292;-62
2021/03/07 11:46:53;;;;;;;11.70;2.55;;;11.40;99.90;;;;;;4998433;28;20026;-62
2021/03/07 11:49:22;;;;;;;10.20;2.55;;;11.50;99.90;;;;;;4994880;28;20773;-61
2021/03/07 11:51:48;;;;;;;13.10;2.42;;;11.40;99.90;;;;;;4995919;28;20062;-62
2021/03/07 11:54:14;;;;;;;18.65;2.45;;;11.40;98.90;;;;;;4995157;28;20046;-62
2021/03/07 11:56:40;;;;;;;21.20;4.53;;;11.80;99.90;;;;;;4995365;28;20089;-62
2021/03/07 11:59:07;;;;;;;11.48;3.00;;;12.30;99.90;;;;;;4996105;28;20030;-62
2021/03/07 12:01:33;;;;;;;13.40;2.72;;;12.60;98.40;;;;;;4994425;28;20030;-62
2021/03/07 12:03:59;;;;;;;13.65;3.47;;;12.50;99.50;;;;;;4998374;28;20382;-62
2021/03/07 12:06:25;;;;;;;15.38;2.53;;;12.20;99.60;;;;;;4996622;28;20034;-62
2021/03/07 12:08:51;;;;;;;14.27;2.33;;;11.90;99.00;;;;;;4995844;28;20037;-62
2021/03/07 12:11:18;;;;;;;14.90;2.88;;;12.10;99.90;;;;;;4995999;28;20044;-62
2021/03/07 12:13:45;;;;;;;10.95;2.90;;;12.30;99.90;;;;;;4998560;28;21920;-61
2021/03/07 12:16:10;;;;;;;14.55;3.47;;;12.20;99.90;;;;;;4996135;28;20076;-62
2021/03/07 12:18:37;;;;;;;13.00;2.50;;;12.40;99.20;;;;;;4999013;28;20148;-62
2021/03/07 12:21:06;;;;;;;19.73;2.92;;;12.40;98.70;;;;;;4992033;28;20050;-62
2021/03/07 12:23:32;;;;;;;15.07;2.75;;;12.30;99.70;;;;;;4995790;28;20029;-62
2021/03/07 12:25:58;;;;;;;18.75;2.92;;;12.30;99.00;;;;;;5001039;28;20553;-62
2021/03/07 12:28:24;;;;;;;10.48;2.28;;;12.40;99.20;;;;;;4996459;28;20041;-62
2021/03/07 12:30:50;;;;;;;12.73;2.75;;;12.30;99.90;;;;;;4998493;28;20042;-62
2021/03/07 12:33:16;;;;;;;13.82;2.60;;;12.70;98.00;;;;;;4999485;28;20311;-62
2021/03/07 12:35:42;;;;;;;15.75;3.05;;;12.70;99.00;;;;;;4995058;28;20630;-62
2021/03/07 12:38:08;;;;;;;9.15;2.47;;;12.80;97.60;;;;;;4994860;28;20030;-62
2021/03/07 12:40:34;;;;;;;13.10;2.65;;;12.50;98.80;;;;;;4993803;28;20087;-62
2021/03/07 12:43:00;;;;;;;15.20;3.25;;;12.00;98.80;;;;;;4990876;28;20034;-61
2021/03/07 12:45:26;;;;;;;13.70;2.88;;;11.60;99.70;;;;;;4994354;28;20399;-62
2021/03/07 12:47:52;;;;;;;12.10;2.70;;;11.80;99.60;;;;;;4998389;28;20042;-62
2021/03/07 12:50:18;;;;;;;18.88;3.38;;;12.00;99.40;;;;;;4995250;28;20040;-63
2021/03/07 12:52:43;;;;;;;7.72;2.88;;;12.40;99.90;;;;;;4988471;28;21569;-64
2021/03/07 12:55:09;;;;;;;12.73;2.78;;;12.40;99.90;;;;;;4993366;28;20029;-62